Time;durP1;ratioP1;P1;durP2;ratioP2;P2;SDS_P1;SDS_P2;PMS_P1;PMS_P2;Temp;Humidity;BMP_temperature;BMP_pressure;BME280_temperature;BME280_humidity;BME280_pressure;Samples;Min_cycle;Max_cycle;Signal;HPM_P1;HPM_P2
2022/09/09 00:02:16;;;;;;;9.38;7.25;;;;;;;15.92;84.11;95476.93;1779517;81;21461;-76
2022/09/09 00:04:48;;;;;;;7.53;6.47;;;;;;;15.91;84.41;95466.37;1779154;80;21019;-76
2022/09/09 00:07:43;;;;;;;10.23;6.85;;;;;;;15.94;84.47;95473.75;1778512;81;21548;-76
2022/09/09 00:10:33;;;;;;;9.40;6.78;;;;;;;15.95;84.45;95474.17;1779239;80;20998;-76
2022/09/09 00:13:24;;;;;;;11.48;6.67;;;;;;;15.92;84.42;95468.09;1778785;81;21095;-76
2022/09/09 00:16:18;;;;;;;12.43;7.37;;;;;;;15.90;84.18;95481.47;1779675;80;20999;-76
2022/09/09 00:19:03;;;;;;;10.72;6.87;;;;;;;15.91;84.72;95485.00;1779384;80;20987;-76
2022/09/09 00:21:49;;;;;;;8.68;6.35;;;;;;;15.95;84.87;95475.50;1779216;81;21037;-76
2022/09/09 00:24:36;;;;;;;14.18;6.40;;;;;;;15.92;84.43;95474.74;1777413;81;21478;-75
2022/09/09 00:27:18;;;;;;;7.90;6.00;;;;;;;15.89;84.73;95474.88;1778618;81;21087;-75
2022/09/09 00:30:11;;;;;;;12.85;6.85;;;;;;;15.87;84.25;95473.59;1779758;80;21057;-75
2022/09/09 00:32:39;;;;;;;13.03;6.72;;;;;;;15.82;84.61;95469.40;1779333;81;21018;-75
2022/09/09 00:35:19;;;;;;;10.18;6.60;;;;;;;15.81;84.64;95457.90;1779005;80;21015;-75
2022/09/09 00:37:50;;;;;;;12.43;7.05;;;;;;;15.82;84.32;95454.30;1779458;80;21026;-75
2022/09/09 00:40:26;;;;;;;7.92;5.85;;;;;;;15.81;84.76;95448.59;1779550;80;20967;-75
2022/09/09 00:43:35;;;;;;;13.45;6.90;;;;;;;15.83;84.25;95452.53;1779359;80;21083;-76
2022/09/09 00:46:23;;;;;;;9.38;6.90;;;;;;;15.83;84.75;95440.56;1779395;80;20971;-76
2022/09/09 00:49:01;;;;;;;15.32;6.35;;;;;;;15.90;85.00;95439.34;1778925;81;21019;-76
2022/09/09 00:51:57;;;;;;;10.03;6.60;;;;;;;15.91;84.51;95441.09;1779191;80;21012;-75
2022/09/09 00:54:47;;;;;;;10.08;6.83;;;;;;;15.84;84.35;95431.16;1731331;81;21529;-76
2022/09/09 00:57:33;;;;;;;9.48;6.33;;;;;;;15.88;84.24;95439.43;1779039;81;21082;-76
2022/09/09 01:00:23;;;;;;;6.22;5.60;;;;;;;15.84;84.59;95427.64;1751146;81;20999;-75
2022/09/09 01:03:21;;;;;;;8.40;6.20;;;;;;;15.91;84.25;95431.78;1750897;81;20999;-75
2022/09/09 01:06:33;;;;;;;9.30;6.58;;;;;;;15.80;84.59;95424.26;1779235;81;20995;-75
2022/09/09 01:09:28;;;;;;;8.45;6.42;;;;;;;15.75;84.95;95425.77;1779238;81;20993;-75
2022/09/09 01:12:18;;;;;;;7.47;6.40;;;;;;;15.78;84.80;95438.94;1779316;81;21022;-75
2022/09/09 01:14:58;;;;;;;9.83;6.78;;;;;;;15.77;84.90;95444.31;1779301;80;21039;-75
2022/09/09 01:17:34;;;;;;;7.62;6.83;;;;;;;15.74;84.98;95449.30;1750889;81;21521;-75
2022/09/09 01:20:17;;;;;;;12.20;7.30;;;;;;;15.79;85.72;95455.29;1779204;81;21019;-76
2022/09/09 01:23:27;;;;;;;10.63;7.67;;;;;;;15.91;85.62;95457.92;1779262;80;21315;-76
2022/09/09 01:38:21;;;;;;;11.15;8.28;;;;;;;17.22;82.80;95598.36;1802526;79;23492;-72
2022/09/09 01:40:52;;;;;;;11.38;8.63;;;;;;;17.03;84.42;95618.76;1762923;80;21528;-72
2022/09/09 01:43:22;;;;;;;11.10;8.93;;;;;;;17.00;84.54;95633.56;1763012;81;21515;-72
2022/09/09 01:45:54;;;;;;;10.30;8.53;;;;;;;17.01;84.59;95631.28;1729108;83;21060;-71
2022/09/09 01:48:22;;;;;;;12.03;7.12;;;;;;;17.02;85.26;95643.70;1729476;83;21079;-72
2022/09/09 01:50:54;;;;;;;7.15;6.55;;;;;;;16.99;84.99;95650.50;1727959;83;21025;-72
2022/09/09 01:53:22;;;;;;;8.48;6.25;;;;;;;16.95;85.17;95643.55;1729352;83;21571;-72
2022/09/09 01:55:55;;;;;;;9.78;6.37;;;;;;;16.91;85.28;95641.50;1729345;83;20971;-71
2022/09/09 01:58:46;;;;;;;10.15;6.50;;;;;;;16.90;86.32;95638.89;1729324;83;21042;-72
2022/09/09 02:01:36;;;;;;;9.23;6.92;;;;;;;16.90;87.38;95633.08;1729212;83;21026;-72
2022/09/09 02:04:08;;;;;;;6.25;5.25;;;;;;;16.86;87.71;95627.50;1729549;83;21046;-72
2022/09/09 02:06:38;;;;;;;6.55;5.47;;;;;;;16.83;86.66;95623.17;1700140;83;21030;-72
2022/09/09 02:09:10;;;;;;;5.55;4.42;;;;;;;16.83;87.23;95626.28;1727814;83;20997;-72
2022/09/09 02:11:38;;;;;;;9.30;5.53;;;;;;;16.88;86.85;95625.61;1729411;83;21026;-73
2022/09/09 02:14:20;;;;;;;6.90;5.92;;;;;;;16.87;87.11;95623.89;1727749;83;21511;-72
2022/09/09 02:16:52;;;;;;;6.42;5.50;;;;;;;16.86;87.55;95624.37;1728940;83;21070;-72
2022/09/09 02:19:25;;;;;;;8.68;5.15;;;;;;;16.84;87.77;95614.70;1729659;83;21006;-72
2022/09/09 02:21:59;;;;;;;6.47;5.33;;;;;;;16.85;88.00;95615.95;1728829;83;21065;-72
2022/09/09 02:24:29;;;;;;;6.17;5.58;;;;;;;16.93;87.63;95623.62;1729366;83;21034;-72
2022/09/09 02:27:00;;;;;;;5.90;5.37;;;;;;;16.95;87.75;95627.09;1727731;83;21007;-70
2022/09/09 02:29:32;;;;;;;8.50;4.83;;;;;;;17.00;87.83;95630.89;1729373;83;21022;-72
2022/09/09 02:32:05;;;;;;;7.37;5.47;;;;;;;16.95;86.95;95621.76;1729577;83;21034;-71
2022/09/09 02:34:38;;;;;;;7.10;5.33;;;;;;;16.92;87.64;95606.38;1729351;83;21436;-72
2022/09/09 02:37:08;;;;;;;9.53;5.35;;;;;;;16.98;88.00;95606.09;1726400;83;21019;-72
2022/09/09 02:39:35;;;;;;;5.70;4.67;;;;;;;17.06;87.98;95603.52;1721777;83;20975;-72
2022/09/09 02:42:04;;;;;;;7.60;4.95;;;;;;;17.09;87.37;95599.84;1692874;83;21496;-72
2022/09/09 02:44:32;;;;;;;7.20;5.65;;;;;;;17.14;87.31;95595.66;1721581;83;21534;-72
2022/09/09 02:47:37;;;;;;;6.08;5.33;;;;;;;17.05;86.49;95584.44;1757339;82;21019;-72
2022/09/09 02:50:17;;;;;;;8.38;7.20;;;;;;;17.03;86.88;95590.33;1757024;81;21097;-72
2022/09/09 02:52:49;;;;;;;7.40;5.87;;;;;;;17.06;87.67;95590.19;1757296;81;20967;-72
2022/09/09 02:55:24;;;;;;;8.10;4.83;;;;;;;17.11;87.86;95581.09;1757205;81;21529;-72
2022/09/09 02:57:54;;;;;;;6.97;5.60;;;;;;;17.05;86.79;95575.11;1738122;82;21011;-72
2022/09/09 03:00:27;;;;;;;7.90;4.90;;;;;;;16.99;86.75;95577.20;1738148;82;21065;-72
2022/09/09 03:02:55;;;;;;;7.60;5.67;;;;;;;17.02;87.20;95582.39;1712798;82;20967;-72
2022/09/09 03:05:21;;;;;;;6.97;6.25;;;;;;;16.99;87.46;95587.39;1757417;81;21028;-72
2022/09/09 03:07:49;;;;;;;7.10;5.87;;;;;;;16.99;87.47;95591.39;1757315;81;21011;-72
2022/09/09 03:10:18;;;;;;;6.12;5.60;;;;;;;17.03;87.92;95585.00;1757162;82;21051;-72
2022/09/09 03:12:44;;;;;;;6.65;5.40;;;;;;;17.12;87.98;95581.05;1757182;82;21019;-72
2022/09/09 03:15:11;;;;;;;8.40;5.90;;;;;;;17.13;86.98;95574.77;1757092;81;21055;-72
2022/09/09 03:17:38;;;;;;;7.78;5.92;;;;;;;17.01;86.77;95569.97;1757014;82;21050;-72
2022/09/09 03:20:07;;;;;;;9.40;7.28;;;;;;;16.94;86.96;95568.54;1757328;81;20964;-72
2022/09/09 03:22:34;;;;;;;8.88;6.42;;;;;;;16.93;87.50;95560.13;1757012;82;21034;-72
2022/09/09 03:25:02;;;;;;;10.53;6.40;;;;;;;16.91;87.65;95564.66;1756948;82;21018;-72
2022/09/09 03:27:29;;;;;;;7.33;6.08;;;;;;;16.89;87.56;95561.22;1757166;82;21039;-72
2022/09/09 03:29:57;;;;;;;8.28;6.03;;;;;;;16.93;88.09;95558.32;1757208;81;21011;-72
2022/09/09 03:32:31;;;;;;;8.60;6.62;;;;;;;17.00;88.18;95563.78;1757160;81;21488;-72
2022/09/09 03:34:54;;;;;;;7.60;6.58;;;;;;;16.98;87.49;95574.97;1737496;82;21023;-72
2022/09/09 03:37:22;;;;;;;7.30;5.65;;;;;;;16.99;87.59;95571.39;1753755;81;21043;-72
2022/09/09 03:39:49;;;;;;;8.05;6.20;;;;;;;17.04;87.66;95565.87;1748931;82;20992;-71
2022/09/09 03:42:19;;;;;;;7.30;5.72;;;;;;;17.08;87.52;95571.44;1738810;82;21517;-72
2022/09/09 03:44:49;;;;;;;11.08;6.03;;;;;;;17.13;87.14;95573.43;1748874;81;21023;-71
2022/09/09 03:47:19;;;;;;;8.53;5.72;;;;;;;17.14;87.33;95574.33;1749098;81;21011;-72
2022/09/09 03:49:46;;;;;;;8.05;5.47;;;;;;;17.13;86.75;95572.57;1749283;81;21016;-72
2022/09/09 03:52:13;;;;;;;7.65;6.22;;;;;;;17.03;86.72;95576.11;1713154;83;21551;-72
2022/09/09 03:54:42;;;;;;;7.25;6.00;;;;;;;17.01;87.21;95568.64;1749140;82;21090;-72
2022/09/09 03:57:10;;;;;;;6.50;5.25;;;;;;;16.94;86.81;95558.73;1749275;82;21063;-72
2022/09/09 03:59:37;;;;;;;7.85;6.67;;;;;;;16.85;86.59;95554.66;1749214;81;21027;-72
2022/09/09 04:02:04;;;;;;;6.45;5.70;;;;;;;16.79;86.37;95548.28;1749043;82;21051;-72
2022/09/09 04:04:30;;;;;;;7.10;5.20;;;;;;;16.77;86.72;95547.45;1748985;82;21027;-72
2022/09/09 04:06:57;;;;;;;9.40;5.55;;;;;;;16.86;87.42;95554.22;1749037;81;21031;-73
2022/09/09 04:09:24;;;;;;;5.92;5.33;;;;;;;16.91;87.65;95549.55;1713528;83;21456;-73
2022/09/09 04:11:51;;;;;;;7.97;5.30;;;;;;;16.92;87.34;95545.94;1713257;83;21062;-73
2022/09/09 04:14:18;;;;;;;6.67;5.55;;;;;;;16.90;87.54;95547.80;1749182;82;21030;-72
2022/09/09 04:16:45;;;;;;;6.42;5.03;;;;;;;16.90;87.36;95544.28;1738621;82;21015;-72
2022/09/09 04:19:14;;;;;;;4.87;4.47;;;;;;;16.95;87.54;95537.80;1712950;84;21023;-72
2022/09/09 04:21:41;;;;;;;7.50;5.03;;;;;;;16.94;87.35;95515.23;1749209;82;21025;-72
2022/09/09 04:24:09;;;;;;;6.55;5.85;;;;;;;16.91;87.66;95501.58;1749309;81;21016;-72
2022/09/09 04:26:37;;;;;;;9.08;8.15;;;;;;;16.87;87.70;95498.17;1748668;82;21016;-72
2022/09/09 04:29:04;;;;;;;6.35;5.20;;;;;;;16.85;87.64;95500.50;1749200;81;21488;-72
2022/09/09 04:31:32;;;;;;;6.25;4.50;;;;;;;16.83;87.25;95507.70;1749186;82;20991;-73
2022/09/09 04:34:02;;;;;;;6.30;4.90;;;;;;;16.82;87.25;95510.83;1713236;83;20984;-72
2022/09/09 04:36:27;;;;;;;5.65;4.45;;;;;;;16.82;87.19;95526.83;1713532;84;21508;-72
2022/09/09 04:38:55;;;;;;;8.43;4.75;;;;;;;16.79;86.97;95532.77;1720181;83;21023;-72
2022/09/09 04:41:21;;;;;;;6.17;4.35;;;;;;;16.73;88.00;95536.98;1720915;83;21015;-72
2022/09/09 04:43:50;;;;;;;5.85;5.25;;;;;;;16.72;88.47;95549.92;1720997;83;21460;-73
2022/09/09 04:46:17;;;;;;;6.37;5.53;;;;;;;16.75;89.02;95551.11;1721006;83;20979;-71
2022/09/09 04:48:44;;;;;;;5.87;5.37;;;;;;;16.74;88.58;95545.39;1720758;83;21504;-72
2022/09/09 04:51:13;;;;;;;5.25;4.75;;;;;;;16.85;89.01;95541.81;1757331;82;20971;-74
2022/09/09 04:53:40;;;;;;;4.87;4.37;;;;;;;16.95;88.97;95528.47;1757116;82;21007;-72
2022/09/09 04:56:12;;;;;;;6.72;4.20;;;;;;;16.96;88.40;95521.34;1757273;81;21493;-72
2022/09/09 04:58:44;;;;;;;;;;;;;;;16.97;88.41;95517.28;1759674;81;21011;-73
2022/09/09 05:01:18;;;;;;;5.12;4.42;;;;;;;17.04;88.52;95513.89;1756946;82;20425;-74
2022/09/09 05:03:47;;;;;;;5.33;3.92;;;;;;;17.09;88.46;95507.88;1756843;82;21548;-74
2022/09/09 05:06:20;;;;;;;5.00;4.35;;;;;;;17.14;87.84;95501.01;1757120;81;21020;-70
2022/09/09 05:08:51;;;;;;;5.15;4.65;;;;;;;17.15;87.61;95494.73;1757146;82;20952;-70
2022/09/09 05:11:25;;;;;;;4.42;4.03;;;;;;;17.18;87.65;95503.91;1757210;81;21027;-69
2022/09/09 05:13:54;;;;;;;6.67;5.35;;;;;;;17.11;86.79;95496.69;1757192;81;20960;-71
2022/09/09 05:16:22;;;;;;;6.20;4.50;;;;;;;17.10;87.59;95496.27;1756697;82;21129;-63
2022/09/09 05:18:54;;;;;;;7.08;4.95;;;;;;;17.13;87.72;95491.26;1757094;82;21488;-62
2022/09/09 05:21:22;;;;;;;8.65;5.65;;;;;;;17.22;88.08;95490.84;1756439;81;21012;-60
2022/09/09 05:23:51;;;;;;;43.25;31.82;;;;;;;17.33;88.03;95476.53;1757052;81;21011;-62
2022/09/09 05:26:22;;;;;;;10.40;8.15;;;;;;;17.29;86.71;95479.82;1753420;82;20967;-62
2022/09/09 05:28:49;;;;;;;8.45;7.47;;;;;;;17.29;87.07;95483.82;1748585;82;21062;-62
2022/09/09 05:31:18;;;;;;;9.25;7.92;;;;;;;17.32;87.21;95481.95;1748551;81;21110;-63
2022/09/09 05:33:49;;;;;;;8.30;6.67;;;;;;;17.39;87.73;95480.73;1748363;82;21117;-63
2022/09/09 05:36:21;;;;;;;7.95;7.05;;;;;;;17.48;87.22;95482.47;1748625;82;21043;-63
2022/09/09 05:38:50;;;;;;;16.80;14.83;;;;;;;17.46;87.17;95484.81;1742575;81;21023;-62
2022/09/09 05:41:19;;;;;;;29.42;26.48;;;;;;;17.45;87.43;95477.29;1740409;82;20968;-61
2022/09/09 05:43:49;;;;;;;13.90;12.40;;;;;;;17.43;87.54;95479.63;1740428;82;21027;-61
2022/09/09 05:46:24;;;;;;;19.32;16.10;;;;;;;17.48;87.96;95475.80;1740307;82;21054;-61
2022/09/09 05:48:53;;;;;;;11.12;10.03;;;;;;;17.59;87.83;95477.09;1740527;82;21024;-62
2022/09/09 05:51:26;;;;;;;8.98;5.67;;;;;;;17.58;87.49;95470.03;1740426;82;21095;-63
2022/09/09 05:53:58;;;;;;;8.75;7.85;;;;;;;17.60;87.38;95463.69;1740772;82;20983;-64
2022/09/09 05:56:28;;;;;;;28.67;25.95;;;;;;;17.59;87.01;95471.75;1740365;82;21090;-63
2022/09/09 05:58:56;;;;;;;9.68;8.78;;;;;;;17.60;86.77;95468.16;1740606;82;20992;-61
2022/09/09 06:01:26;;;;;;;7.37;6.35;;;;;;;17.57;87.01;95462.51;1740566;82;21469;-63
2022/09/09 06:03:53;;;;;;;6.75;6.03;;;;;;;17.69;87.59;95465.06;1740544;82;21050;-63
2022/09/09 06:06:25;;;;;;;7.80;5.75;;;;;;;17.76;87.67;95463.80;1740631;82;21600;-64
2022/09/09 06:09:00;;;;;;;7.15;5.05;;;;;;;17.90;87.87;95468.03;1740793;82;20995;-61
2022/09/09 06:11:27;;;;;;;5.20;4.55;;;;;;;18.05;87.80;95469.08;1738869;82;21461;-63
2022/09/09 06:13:54;;;;;;;5.95;4.90;;;;;;;18.14;87.23;95463.29;1740696;82;20975;-63
2022/09/09 06:16:24;;;;;;;5.37;4.87;;;;;;;18.21;86.80;95457.15;1740186;82;21055;-62
2022/09/09 06:18:56;;;;;;;6.37;5.33;;;;;;;18.25;86.58;95461.88;1740420;82;21023;-62
2022/09/09 06:21:33;;;;;;;5.37;4.80;;;;;;;18.28;86.32;95460.38;1740763;82;21087;-63
2022/09/09 06:24:01;;;;;;;5.17;4.40;;;;;;;18.35;86.03;95463.13;1740742;82;20999;-63
2022/09/09 06:26:32;;;;;;;5.30;4.37;;;;;;;18.41;86.14;95468.63;1740733;82;21553;-62
2022/09/09 06:29:03;;;;;;;6.33;5.73;;;;;;;18.51;85.38;95469.88;1741196;82;21035;-61
2022/09/09 06:31:33;;;;;;;6.03;5.42;;;;;;;18.51;84.62;95467.20;1740826;82;21015;-62
2022/09/09 06:34:06;;;;;;;8.90;8.15;;;;;;;18.43;84.28;95466.27;1740379;82;21063;-64
2022/09/09 06:36:37;;;;;;;6.00;5.50;;;;;;;18.47;84.90;95467.85;1740704;82;21035;-64
2022/09/09 06:39:06;;;;;;;8.73;5.55;;;;;;;18.50;84.84;95465.02;1740597;81;21478;-62
2022/09/09 06:41:33;;;;;;;5.97;5.15;;;;;;;18.54;84.92;95467.05;1740841;82;21016;-62
2022/09/09 06:44:01;;;;;;;7.00;6.30;;;;;;;18.59;84.54;95471.67;1740851;82;21372;-62
2022/09/09 06:46:32;;;;;;;7.78;5.97;;;;;;;18.55;83.59;95479.00;1740470;82;21000;-62
2022/09/09 06:49:01;;;;;;;6.83;6.22;;;;;;;18.60;84.29;95472.95;1740722;82;21031;-62
2022/09/09 06:51:35;;;;;;;6.87;6.25;;;;;;;18.73;84.12;95478.51;1740449;82;21534;-63
2022/09/09 06:54:04;;;;;;;8.45;7.58;;;;;;;18.67;82.32;95468.59;1740644;82;21023;-63
2022/09/09 06:56:41;;;;;;;13.62;11.53;;;;;;;18.68;82.98;95481.03;1740613;82;21075;-61
2022/09/09 06:59:11;;;;;;;11.83;9.43;;;;;;;18.67;82.62;95484.63;1740613;82;21470;-62
2022/09/09 07:01:41;;;;;;;7.37;6.60;;;;;;;18.66;82.54;95487.78;1740588;82;20968;-61
2022/09/09 07:04:10;;;;;;;12.55;8.83;;;;;;;18.69;82.97;95483.61;1740643;82;21019;-61
2022/09/09 07:06:47;;;;;;;7.30;6.15;;;;;;;18.74;83.03;95481.56;1719829;82;21111;-62
2022/09/09 07:09:15;;;;;;;9.33;8.43;;;;;;;18.74;81.56;95486.05;1740582;82;20991;-61
2022/09/09 07:11:48;;;;;;;12.95;11.63;;;;;;;18.77;82.36;95484.13;1740725;82;21055;-62
2022/09/09 07:14:15;;;;;;;11.48;10.40;;;;;;;18.77;81.90;95490.81;1740776;82;20971;-64
2022/09/09 07:16:46;;;;;;;10.23;9.10;;;;;;;18.79;81.75;95494.24;1740637;82;21493;-62
2022/09/09 07:19:14;;;;;;;10.20;9.20;;;;;;;18.85;82.53;95485.51;1740617;82;21004;-61
2022/09/09 07:21:42;;;;;;;10.48;9.13;;;;;;;18.90;82.21;95487.02;1740682;82;21035;-61
2022/09/09 07:24:10;;;;;;;14.00;9.03;;;;;;;18.96;82.39;95488.02;1740724;82;21039;-62
2022/09/09 07:26:39;;;;;;;12.00;10.90;;;;;;;18.99;81.37;95494.52;1740470;82;21501;-62
2022/09/09 07:29:08;;;;;;;10.75;9.65;;;;;;;19.03;81.90;95492.57;1740187;82;21023;-62
2022/09/09 07:31:37;;;;;;;10.32;9.40;;;;;;;19.05;81.43;95488.02;1740779;82;21034;-62
2022/09/09 07:34:07;;;;;;;9.28;8.48;;;;;;;19.05;81.46;95494.70;1740630;82;21012;-61
2022/09/09 07:36:39;;;;;;;8.98;7.62;;;;;;;19.11;81.79;95494.35;1740842;82;21012;-61
2022/09/09 07:39:11;;;;;;;8.95;7.40;;;;;;;19.21;81.92;95483.55;1749880;82;21054;-64
2022/09/09 07:41:44;;;;;;;7.80;7.10;;;;;;;19.29;81.60;95482.27;1754651;82;21030;-64
2022/09/09 07:44:16;;;;;;;7.12;6.22;;;;;;;19.30;80.89;95486.17;1754737;82;21078;-62
2022/09/09 07:46:45;;;;;;;6.83;6.13;;;;;;;19.34;80.65;95490.91;1755028;82;21042;-62
2022/09/09 07:49:14;;;;;;;8.40;6.95;;;;;;;19.32;80.26;95488.30;1754297;82;21038;-63
2022/09/09 07:51:45;;;;;;;6.45;5.85;;;;;;;19.34;80.37;95491.77;1755042;82;21007;-63
2022/09/09 07:54:17;;;;;;;8.58;6.22;;;;;;;19.40;80.37;95490.11;1726999;82;21011;-61
2022/09/09 07:56:44;;;;;;;7.23;6.60;;;;;;;19.47;80.37;95491.95;1754881;82;21054;-62
2022/09/09 07:59:11;;;;;;;6.83;6.22;;;;;;;19.52;80.11;95481.86;1726774;82;21918;-62
2022/09/09 08:01:54;;;;;;;6.28;5.67;;;;;;;19.67;80.21;95495.75;1754773;82;21051;-62
2022/09/09 08:04:25;;;;;;;6.87;6.17;;;;;;;19.76;79.62;95489.03;1754477;82;21079;-62
2022/09/09 08:06:58;;;;;;;7.22;6.53;;;;;;;19.85;79.29;95494.33;1754612;82;21560;-64
2022/09/09 08:09:28;;;;;;;7.28;5.85;;;;;;;19.95;78.99;95491.99;1754655;82;21016;-62
2022/09/09 08:11:58;;;;;;;8.63;6.75;;;;;;;20.07;78.45;95500.19;1753750;81;21039;-66
2022/09/09 08:14:27;;;;;;;7.95;6.40;;;;;;;20.13;77.60;95502.13;1752852;82;20960;-62
2022/09/09 08:16:57;;;;;;;29.67;26.75;;;;;;;20.05;76.90;95499.88;1736156;82;21550;-65
2022/09/09 08:19:25;;;;;;;15.90;14.33;;;;;;;20.15;78.20;95505.58;1749435;82;21002;-64
2022/09/09 08:21:52;;;;;;;34.98;32.08;;;;;;;20.22;77.72;95507.81;1754158;81;21060;-63
2022/09/09 08:24:19;;;;;;;18.05;16.45;;;;;;;20.19;76.60;95512.50;1754101;81;21458;-62
2022/09/09 08:26:49;;;;;;;7.90;7.20;;;;;;;20.18;76.71;95511.61;1754453;82;21567;-62
2022/09/09 08:29:18;;;;;;;9.65;7.60;;;;;;;20.26;76.63;95508.48;1753800;82;21544;-64
2022/09/09 08:31:54;;;;;;;8.45;7.62;;;;;;;20.36;76.73;95503.01;1754341;81;20970;-65
2022/09/09 08:34:22;;;;;;;7.45;6.67;;;;;;;20.42;76.43;95503.12;1754126;81;20997;-65
2022/09/09 08:36:51;;;;;;;7.95;7.20;;;;;;;20.44;76.79;95503.41;1754332;82;21028;-62
2022/09/09 08:39:21;;;;;;;8.10;7.20;;;;;;;20.51;76.40;95495.84;1738485;81;21028;-64
2022/09/09 08:42:13;;;;;;;8.63;7.83;;;;;;;20.64;76.31;95501.41;1758654;81;21064;-62
2022/09/09 08:45:04;;;;;;;10.15;8.70;;;;;;;20.68;75.87;95507.80;1757631;81;21033;-66
2022/09/09 08:48:01;;;;;;;8.93;8.10;;;;;;;20.79;76.18;95501.83;1758255;81;21148;-63
2022/09/09 08:50:38;;;;;;;11.08;8.20;;;;;;;20.88;74.74;95506.61;1758707;81;21009;-66
2022/09/09 08:53:18;;;;;;;8.78;7.53;;;;;;;20.98;75.15;95501.55;1758742;81;21037;-64
2022/09/09 08:55:55;;;;;;;111.17;75.55;;;;;;;21.03;75.31;95506.16;1758943;81;21549;-67
2022/09/09 08:58:30;;;;;;;16.93;15.35;;;;;;;21.03;75.39;95510.18;1756961;81;21052;-64
2022/09/09 09:01:32;;;;;;;26.62;24.10;;;;;;;20.94;74.69;95502.68;1758862;81;21069;-63
2022/09/09 09:04:15;;;;;;;6.87;6.22;;;;;;;21.00;75.26;95500.12;1709085;81;21021;-63
2022/09/09 09:06:57;;;;;;;9.80;8.77;;;;;;;21.09;75.42;95504.45;1758644;81;21506;-63
2022/09/09 09:09:53;;;;;;;7.30;6.10;;;;;;;21.15;75.99;95500.03;1757646;81;21029;-62
2022/09/09 09:12:25;;;;;;;6.10;5.60;;;;;;;21.28;75.38;95505.98;1758968;81;21003;-62
2022/09/09 09:14:52;;;;;;;7.60;6.90;;;;;;;21.39;74.65;95499.03;1758747;81;21009;-63
2022/09/09 09:17:23;;;;;;;8.68;7.17;;;;;;;21.56;74.79;95498.44;1758386;81;21092;-63
2022/09/09 09:19:51;;;;;;;7.58;6.97;;;;;;;21.66;73.93;95495.55;1758641;81;21101;-62
2022/09/09 09:22:29;;;;;;;7.08;6.37;;;;;;;21.87;74.49;95489.25;1758574;81;21020;-63
2022/09/09 09:25:28;;;;;;;7.12;6.50;;;;;;;22.04;73.57;95489.02;1759018;81;21073;-64
2022/09/09 09:28:06;;;;;;;7.67;6.80;;;;;;;22.03;72.57;95487.31;1758133;81;21037;-63
2022/09/09 09:30:39;;;;;;;7.62;6.92;;;;;;;22.11;72.64;95490.84;1759239;81;21538;-62
2022/09/09 09:33:28;;;;;;;8.55;7.67;;;;;;;22.24;72.57;95497.14;1759480;81;20989;-63
2022/09/09 09:35:56;;;;;;;8.00;7.20;;;;;;;22.49;72.79;95490.63;1758966;81;21025;-63
2022/09/09 09:38:27;;;;;;;7.58;6.92;;;;;;;22.66;71.23;95488.52;1758096;81;21613;-63
2022/09/09 09:40:58;;;;;;;8.15;7.45;;;;;;;22.81;71.30;95492.48;1749253;81;21502;-63
2022/09/09 09:43:32;;;;;;;10.48;9.35;;;;;;;22.90;71.04;95495.86;1749155;82;20990;-63
2022/09/09 09:46:06;;;;;;;8.33;7.60;;;;;;;22.87;70.72;95493.39;1748939;82;21049;-63
2022/09/09 09:48:32;;;;;;;8.30;7.50;;;;;;;22.75;71.07;95502.30;1738759;82;21049;-63
2022/09/09 09:51:05;;;;;;;9.45;8.45;;;;;;;22.58;71.14;95500.74;1749100;82;21534;-62
2022/09/09 09:53:36;;;;;;;8.48;7.62;;;;;;;22.41;71.43;95505.93;1749352;81;21001;-62
2022/09/09 09:56:12;;;;;;;8.90;8.10;;;;;;;22.24;72.01;95502.52;1749365;82;21022;-62
2022/09/09 09:58:49;;;;;;;9.53;7.95;;;;;;;22.04;71.82;95505.63;1749222;81;21546;-63
2022/09/09 10:01:35;;;;;;;9.53;8.53;;;;;;;21.87;72.88;95510.75;1749050;82;21090;-62
2022/09/09 10:04:22;;;;;;;8.33;7.55;;;;;;;21.89;73.05;95505.28;1749186;81;21482;-63
2022/09/09 10:06:51;;;;;;;8.68;7.35;;;;;;;21.82;73.55;95504.81;1749467;82;21507;-63
2022/09/09 10:09:28;;;;;;;9.08;7.08;;;;;;;22.01;74.41;95499.98;1749225;82;21056;-63
2022/09/09 10:12:13;;;;;;;9.55;7.00;;;;;;;22.27;73.38;95508.17;1749369;82;21483;-63
2022/09/09 10:14:55;;;;;;;9.03;7.05;;;;;;;22.56;73.41;95512.97;1746927;81;21048;-63
2022/09/09 10:17:54;;;;;;;7.90;7.10;;;;;;;22.77;73.28;95512.47;1737605;82;21117;-63
2022/09/09 10:20:47;;;;;;;10.20;8.58;;;;;;;22.83;72.38;95512.92;1694587;85;21001;-63
2022/09/09 10:23:47;;;;;;;8.28;6.87;;;;;;;22.88;72.18;95510.78;1694582;85;21076;-63
2022/09/09 10:26:40;;;;;;;8.73;7.92;;;;;;;22.96;72.10;95506.70;1667631;85;21089;-62
2022/09/09 10:29:43;;;;;;;10.30;9.23;;;;;;;23.00;71.83;95506.39;1740921;82;21425;-62
2022/09/09 10:32:46;;;;;;;12.03;8.53;;;;;;;22.96;70.97;95506.70;1749301;81;21006;-62
2022/09/09 10:35:38;;;;;;;9.58;8.28;;;;;;;22.85;71.27;95508.77;1749362;81;21020;-62
2022/09/09 10:38:18;;;;;;;9.25;8.35;;;;;;;22.82;70.84;95512.53;1749214;81;21029;-63
2022/09/09 10:40:59;;;;;;;9.28;8.38;;;;;;;22.80;70.92;95508.22;1756837;81;20985;-63
2022/09/09 10:44:11;;;;;;;10.68;9.33;;;;;;;22.85;71.37;95509.63;1757324;82;21025;-63
2022/09/09 10:46:49;;;;;;;9.73;8.58;;;;;;;22.79;70.24;95514.09;1757086;82;20981;-63
2022/09/09 10:50:01;;;;;;;9.98;9.08;;;;;;;22.81;71.18;95509.96;1757326;82;21060;-64
2022/09/09 10:52:48;;;;;;;12.82;9.75;;;;;;;22.92;71.19;95507.88;1757005;81;21033;-63
2022/09/09 10:55:30;;;;;;;9.68;8.48;;;;;;;22.88;70.76;95502.71;1756887;81;21014;-63
2022/09/09 10:58:00;;;;;;;12.98;9.03;;;;;;;22.80;70.62;95505.04;1757118;81;21052;-63
2022/09/09 11:00:40;;;;;;;11.88;9.93;;;;;;;22.78;71.30;95511.03;1757114;82;21021;-63
2022/09/09 11:03:13;;;;;;;9.70;8.80;;;;;;;22.78;71.33;95520.45;1755250;82;20989;-63
2022/09/09 11:05:44;;;;;;;10.15;9.20;;;;;;;22.80;71.58;95517.15;1754010;81;21072;-63
2022/09/09 11:08:18;;;;;;;10.23;9.20;;;;;;;22.74;71.66;95512.69;1756962;81;21506;-62
2022/09/09 11:11:11;;;;;;;10.43;9.03;;;;;;;22.64;71.71;95510.61;1756989;81;21025;-62
2022/09/09 11:13:51;;;;;;;10.38;8.10;;;;;;;22.62;72.17;95510.34;1728688;81;21024;-62
2022/09/09 11:16:42;;;;;;;8.85;7.95;;;;;;;22.51;71.89;95511.56;1757310;81;21017;-62
2022/09/09 11:19:24;;;;;;;9.00;8.18;;;;;;;22.42;72.10;95511.19;1757524;82;21522;-62
2022/09/09 11:21:53;;;;;;;8.90;7.65;;;;;;;22.37;72.36;95510.63;1757468;81;20962;-62
2022/09/09 11:24:46;;;;;;;8.95;8.15;;;;;;;22.30;72.38;95523.23;1757244;82;21032;-63
2022/09/09 11:27:27;;;;;;;8.65;7.75;;;;;;;22.23;72.93;95521.45;1756746;81;21534;-63
2022/09/09 11:30:26;;;;;;;8.78;7.80;;;;;;;22.16;73.12;95522.78;1757620;81;20958;-64
2022/09/09 11:33:24;;;;;;;8.33;7.62;;;;;;;22.08;73.47;95519.74;1757047;82;21068;-63
2022/09/09 11:36:20;;;;;;;8.50;7.70;;;;;;;22.05;73.53;95520.81;1757064;81;21052;-63
2022/09/09 11:38:51;;;;;;;8.90;8.00;;;;;;;22.06;74.32;95513.12;1757289;81;21009;-63
2022/09/09 11:41:23;;;;;;;8.75;7.85;;;;;;;22.03;73.88;95516.02;1757339;82;21033;-62
2022/09/09 11:43:52;;;;;;;11.03;8.37;;;;;;;22.04;73.48;95506.97;1757586;81;21009;-62
2022/09/09 11:46:23;;;;;;;9.60;8.20;;;;;;;22.01;73.71;95507.18;1756950;82;21021;-62
2022/09/09 11:49:02;;;;;;;13.90;8.08;;;;;;;21.99;73.94;95509.95;1757108;81;21502;-62
2022/09/09 11:51:32;;;;;;;10.45;9.05;;;;;;;21.91;73.97;95514.97;1757204;82;20966;-62
2022/09/09 11:54:03;;;;;;;9.73;8.73;;;;;;;21.96;74.50;95508.81;1757345;81;21486;-62
2022/09/09 11:56:45;;;;;;;10.50;8.23;;;;;;;22.12;74.46;95509.16;1756850;82;21067;-62
2022/09/09 11:59:31;;;;;;;11.05;8.78;;;;;;;22.33;74.57;95505.59;1757406;82;21076;-63
2022/09/09 12:02:06;;;;;;;10.72;9.70;;;;;;;22.84;74.56;95509.75;1757216;82;21060;-63
2022/09/09 12:04:40;;;;;;;10.85;9.75;;;;;;;23.60;72.52;95499.50;1756713;81;21076;-63
2022/09/09 12:07:34;;;;;;;11.85;9.90;;;;;;;23.87;70.06;95501.22;1757288;82;21078;-63
2022/09/09 12:10:24;;;;;;;10.38;9.05;;;;;;;23.96;69.33;95500.06;1757219;81;21478;-63
2022/09/09 12:12:50;;;;;;;12.10;10.00;;;;;;;23.91;69.14;95502.70;1757371;82;20986;-63
2022/09/09 12:15:28;;;;;;;12.20;10.53;;;;;;;23.79;69.22;95504.47;1757328;82;21511;-63
2022/09/09 12:18:03;;;;;;;12.25;11.05;;;;;;;23.68;69.14;95496.25;1757205;81;21021;-63
2022/09/09 12:20:37;;;;;;;15.78;10.75;;;;;;;23.58;69.32;95493.84;1756994;81;20993;-62
2022/09/09 12:23:28;;;;;;;12.70;10.68;;;;;;;23.53;69.29;95494.17;1757042;82;21491;-62